Devils Lake, ND

3:20 AM CST on February 06, 2016 (GMT -0600)
Devils Lake Municipal | | Change Station
CLOSE
Current Station
Airport
Location: Devils Lake,
Elevation: 1453 ft
Nearby Weather Stations
Active Advisory: Blizzard Watch

Elev 1453 ft 48.11 °N, 98.91 °W | Updated 24 minutes ago

Mostly Cloudy
Mostly Cloudy
22 °F
Feels Like 14 °F
N
6
Wind Variable Wind from SSE

Today
High -- | Low -- °F
--% Chance of Precip.
Yesterday
High -- | Low -- °F
Precip. -- in
Pressure 30.02 in
Visibility 10.0 miles
Clouds Mostly Cloudy 11000 ft
Windchill 14 °F
Dew Point 19 °F
Humidity 89%
Rainfall 0.00 in
Snow Depth Not available.
7:57 AM 5:42 PM
Waning Crescent, 6% visible
METAR KDVL 060856Z AUTO 15005KT 10SM BKN110 M06/M07 A2990 RMK AO2 SLP164 T10561072 56022 FZRANO
Pressure 30.02 in
Visibility 10.0 miles
Clouds Mostly Cloudy 11000 ft
Windchill 14 °F
Dew Point 19 °F
Humidity 89%
Rainfall 0.00 in
Snow Depth Not available.
7:57 AM 5:42 PM
Waning Crescent, 6% visible
METAR KDVL 060856Z AUTO 15005KT 10SM BKN110 M06/M07 A2990 RMK AO2 SLP164 T10561072 56022 FZRANO

10-Day Weather Forecast

Almanac

Astronomy

Feb. 06, 2016 Rise Set
Actual Time
Civil Twilight
Nautical Twilight
Astronomical Twilight
Moon
Length of Visible Light
Length of Day
Tomorrow will be .
, % of the Moon is Illuminated

Today's Extremes

State Highs State Lows

Community

WunderPhotos

Upload Photos

1,890,933 photos uploaded!

WunderBlog® & News

Nearby

Air Quality

  Air Quality AQ Index Pollutant
Not available.

Snow Depth

Station Depth Elevation

Earthquake Activity

City Distance Mag. Time & Date
Minimum magnitude displayed is 2.5.

Coastal Water Temperatures

Place Temperature

Stations

Nearby Weather Stations

Station Location Temp. Windchill Dew Point Humidity Wind Precip. Elev Updated Type
                   

Watches & Warnings

Blizzard Watch
Issued: 3:13 PM CST Feb. 5, 2016 – National Weather Service

... Blizzard watch in effect from late Saturday night through late
Sunday night...

The National Weather Service in Grand Forks has issued a blizzard
watch... which is in effect from late Saturday night through late
Sunday night.

* Timing... blizzard conditions are possible from late Saturday
night through late Sunday night.

* Winds / visibilities... winds gusting as high as 60 mph could
cause whiteout conditions in blowing snow. Significant drifting
of the snow is likely... especially in open areas.

* Snow accumulations... total snow accumulations of 2 to 4 inches
are possible.

* Impacts... travel could be very difficult to impossible late
Saturday night through Sunday night.

Precautionary/preparedness actions...

A blizzard watch means there is a potential for falling and/or
blowing snow with strong winds and extremely poor visibilities.
This can lead to whiteout conditions and make travel very
dangerous.